sensor_id;sensor_type;location;lat;lon;timestamp;P1;durP1;ratioP1;P2;durP2;ratioP2
39738;SDS011;25422;48.286;8.484;2024-01-16T00:01:15;9.98;;;5.15;;
39738;SDS011;25422;48.286;8.484;2024-01-16T00:03:43;9.90;;;4.88;;
39738;SDS011;25422;48.286;8.484;2024-01-16T00:06:09;8.43;;;4.78;;
39738;SDS011;25422;48.286;8.484;2024-01-16T00:08:35;7.95;;;4.90;;
39738;SDS011;25422;48.286;8.484;2024-01-16T00:11:01;9.30;;;5.13;;
39738;SDS011;25422;48.286;8.484;2024-01-16T00:13:27;10.70;;;5.47;;
39738;SDS011;25422;48.286;8.484;2024-01-16T00:15:52;9.70;;;5.25;;
39738;SDS011;25422;48.286;8.484;2024-01-16T00:18:18;10.48;;;5.18;;
39738;SDS011;25422;48.286;8.484;2024-01-16T00:20:44;9.75;;;6.00;;
39738;SDS011;25422;48.286;8.484;2024-01-16T00:23:09;21.70;;;9.50;;
39738;SDS011;25422;48.286;8.484;2024-01-16T00:25:35;13.00;;;7.18;;
39738;SDS011;25422;48.286;8.484;2024-01-16T00:28:01;9.98;;;6.18;;
39738;SDS011;25422;48.286;8.484;2024-01-16T00:30:27;11.80;;;5.85;;
39738;SDS011;25422;48.286;8.484;2024-01-16T00:32:52;12.80;;;5.60;;
39738;SDS011;25422;48.286;8.484;2024-01-16T00:35:18;11.70;;;5.18;;
39738;SDS011;25422;48.286;8.484;2024-01-16T00:37:44;8.02;;;4.43;;
39738;SDS011;25422;48.286;8.484;2024-01-16T00:40:09;9.65;;;4.80;;
39738;SDS011;25422;48.286;8.484;2024-01-16T00:42:35;12.13;;;6.03;;
39738;SDS011;25422;48.286;8.484;2024-01-16T00:45:00;10.50;;;5.18;;
39738;SDS011;25422;48.286;8.484;2024-01-16T00:47:26;10.80;;;5.47;;
39738;SDS011;25422;48.286;8.484;2024-01-16T00:49:51;15.32;;;6.78;;
39738;SDS011;25422;48.286;8.484;2024-01-16T00:52:18;9.73;;;5.47;;
39738;SDS011;25422;48.286;8.484;2024-01-16T00:54:43;9.32;;;5.00;;
39738;SDS011;25422;48.286;8.484;2024-01-16T00:57:09;7.65;;;4.80;;
39738;SDS011;25422;48.286;8.484;2024-01-16T00:59:34;9.35;;;5.10;;
39738;SDS011;25422;48.286;8.484;2024-01-16T01:02:00;9.30;;;5.53;;
39738;SDS011;25422;48.286;8.484;2024-01-16T01:04:25;9.48;;;4.78;;
39738;SDS011;25422;48.286;8.484;2024-01-16T01:06:51;8.85;;;4.50;;
39738;SDS011;25422;48.286;8.484;2024-01-16T01:09:16;11.88;;;4.95;;
39738;SDS011;25422;48.286;8.484;2024-01-16T01:11:42;8.95;;;4.80;;
39738;SDS011;25422;48.286;8.484;2024-01-16T01:14:07;9.15;;;5.93;;
39738;SDS011;25422;48.286;8.484;2024-01-16T01:16:33;12.18;;;6.13;;
39738;SDS011;25422;48.286;8.484;2024-01-16T01:18:58;10.10;;;4.82;;
39738;SDS011;25422;48.286;8.484;2024-01-16T01:21:24;12.80;;;5.20;;
39738;SDS011;25422;48.286;8.484;2024-01-16T01:23:49;12.70;;;5.88;;
39738;SDS011;25422;48.286;8.484;2024-01-16T01:26:15;12.57;;;6.88;;
39738;SDS011;25422;48.286;8.484;2024-01-16T01:28:43;12.55;;;7.30;;
39738;SDS011;25422;48.286;8.484;2024-01-16T01:31:09;14.07;;;6.65;;
39738;SDS011;25422;48.286;8.484;2024-01-16T01:33:35;12.93;;;5.57;;
39738;SDS011;25422;48.286;8.484;2024-01-16T01:36:01;8.65;;;4.80;;
39738;SDS011;25422;48.286;8.484;2024-01-16T01:38:26;14.00;;;8.52;;
39738;SDS011;25422;48.286;8.484;2024-01-16T01:40:51;7.63;;;4.68;;
39738;SDS011;25422;48.286;8.484;2024-01-16T01:43:19;17.75;;;7.93;;
39738;SDS011;25422;48.286;8.484;2024-01-16T01:45:53;10.23;;;5.32;;
39738;SDS011;25422;48.286;8.484;2024-01-16T01:48:34;10.38;;;6.20;;
39738;SDS011;25422;48.286;8.484;2024-01-16T01:51:01;11.20;;;6.13;;
39738;SDS011;25422;48.286;8.484;2024-01-16T01:53:27;12.70;;;6.25;;
39738;SDS011;25422;48.286;8.484;2024-01-16T01:55:53;8.40;;;5.05;;
39738;SDS011;25422;48.286;8.484;2024-01-16T01:58:20;9.15;;;4.97;;
39738;SDS011;25422;48.286;8.484;2024-01-16T02:00:46;11.52;;;5.57;;
39738;SDS011;25422;48.286;8.484;2024-01-16T02:03:12;9.20;;;5.03;;
39738;SDS011;25422;48.286;8.484;2024-01-16T02:05:38;8.98;;;4.82;;
39738;SDS011;25422;48.286;8.484;2024-01-16T02:08:04;11.75;;;6.03;;
39738;SDS011;25422;48.286;8.484;2024-01-16T02:10:31;11.80;;;6.10;;
39738;SDS011;25422;48.286;8.484;2024-01-16T02:12:57;9.60;;;5.18;;
39738;SDS011;25422;48.286;8.484;2024-01-16T02:15:23;9.75;;;5.07;;
39738;SDS011;25422;48.286;8.484;2024-01-16T02:17:49;15.32;;;7.40;;
39738;SDS011;25422;48.286;8.484;2024-01-16T02:20:14;9.80;;;5.53;;
39738;SDS011;25422;48.286;8.484;2024-01-16T02:22:40;9.55;;;4.65;;
39738;SDS011;25422;48.286;8.484;2024-01-16T02:25:10;12.13;;;4.72;;
39738;SDS011;25422;48.286;8.484;2024-01-16T02:27:36;9.40;;;4.68;;
39738;SDS011;25422;48.286;8.484;2024-01-16T02:30:02;11.05;;;5.20;;
39738;SDS011;25422;48.286;8.484;2024-01-16T02:32:28;13.88;;;5.60;;
39738;SDS011;25422;48.286;8.484;2024-01-16T02:34:53;10.25;;;5.28;;
39738;SDS011;25422;48.286;8.484;2024-01-16T02:37:18;9.57;;;4.95;;
39738;SDS011;25422;48.286;8.484;2024-01-16T02:39:44;11.25;;;5.18;;
39738;SDS011;25422;48.286;8.484;2024-01-16T02:42:10;12.40;;;5.95;;
39738;SDS011;25422;48.286;8.484;2024-01-16T02:44:35;9.52;;;4.75;;
39738;SDS011;25422;48.286;8.484;2024-01-16T02:47:01;12.05;;;5.22;;
39738;SDS011;25422;48.286;8.484;2024-01-16T02:49:26;10.80;;;5.65;;
39738;SDS011;25422;48.286;8.484;2024-01-16T02:51:52;11.95;;;5.38;;
39738;SDS011;25422;48.286;8.484;2024-01-16T02:54:18;11.68;;;5.80;;
39738;SDS011;25422;48.286;8.484;2024-01-16T02:56:43;11.15;;;5.30;;
39738;SDS011;25422;48.286;8.484;2024-01-16T02:59:09;10.18;;;5.65;;
39738;SDS011;25422;48.286;8.484;2024-01-16T03:01:34;10.30;;;5.45;;
39738;SDS011;25422;48.286;8.484;2024-01-16T03:04:00;9.48;;;5.10;;
39738;SDS011;25422;48.286;8.484;2024-01-16T03:06:25;9.27;;;5.22;;
39738;SDS011;25422;48.286;8.484;2024-01-16T03:08:51;11.55;;;4.68;;
39738;SDS011;25422;48.286;8.484;2024-01-16T03:11:17;10.07;;;4.97;;
39738;SDS011;25422;48.286;8.484;2024-01-16T03:13:42;9.10;;;4.80;;
39738;SDS011;25422;48.286;8.484;2024-01-16T03:16:09;9.07;;;4.40;;
39738;SDS011;25422;48.286;8.484;2024-01-16T03:18:36;11.13;;;5.07;;
39738;SDS011;25422;48.286;8.484;2024-01-16T03:21:02;11.55;;;5.32;;
39738;SDS011;25422;48.286;8.484;2024-01-16T03:23:28;10.63;;;5.60;;
39738;SDS011;25422;48.286;8.484;2024-01-16T03:25:54;9.27;;;5.20;;
39738;SDS011;25422;48.286;8.484;2024-01-16T03:28:19;8.32;;;5.18;;
39738;SDS011;25422;48.286;8.484;2024-01-16T03:30:45;12.43;;;6.03;;
39738;SDS011;25422;48.286;8.484;2024-01-16T03:33:11;15.30;;;7.32;;
39738;SDS011;25422;48.286;8.484;2024-01-16T03:35:37;18.85;;;6.55;;
39738;SDS011;25422;48.286;8.484;2024-01-16T03:38:02;12.90;;;5.40;;
39738;SDS011;25422;48.286;8.484;2024-01-16T03:40:27;16.23;;;7.47;;
39738;SDS011;25422;48.286;8.484;2024-01-16T03:42:53;10.50;;;5.07;;
39738;SDS011;25422;48.286;8.484;2024-01-16T03:45:19;11.23;;;5.60;;
39738;SDS011;25422;48.286;8.484;2024-01-16T03:47:45;10.68;;;5.45;;
39738;SDS011;25422;48.286;8.484;2024-01-16T03:50:10;10.32;;;6.13;;
39738;SDS011;25422;48.286;8.484;2024-01-16T03:52:36;11.07;;;5.65;;
39738;SDS011;25422;48.286;8.484;2024-01-16T03:55:01;12.50;;;6.03;;
39738;SDS011;25422;48.286;8.484;2024-01-16T03:57:27;13.65;;;5.50;;
39738;SDS011;25422;48.286;8.484;2024-01-16T03:59:52;14.63;;;5.65;;
39738;SDS011;25422;48.286;8.484;2024-01-16T04:02:17;9.25;;;5.50;;
39738;SDS011;25422;48.286;8.484;2024-01-16T04:04:43;9.05;;;4.85;;
39738;SDS011;25422;48.286;8.484;2024-01-16T04:07:08;14.07;;;6.13;;
39738;SDS011;25422;48.286;8.484;2024-01-16T04:09:34;12.82;;;6.25;;
39738;SDS011;25422;48.286;8.484;2024-01-16T04:12:00;16.52;;;6.55;;
39738;SDS011;25422;48.286;8.484;2024-01-16T04:14:25;16.48;;;6.25;;
39738;SDS011;25422;48.286;8.484;2024-01-16T04:16:51;10.00;;;6.22;;
39738;SDS011;25422;48.286;8.484;2024-01-16T04:19:16;13.38;;;7.10;;
39738;SDS011;25422;48.286;8.484;2024-01-16T04:21:41;13.15;;;7.00;;
39738;SDS011;25422;48.286;8.484;2024-01-16T04:24:07;13.18;;;5.95;;
39738;SDS011;25422;48.286;8.484;2024-01-16T04:26:33;13.32;;;5.78;;
39738;SDS011;25422;48.286;8.484;2024-01-16T04:29:01;9.63;;;5.68;;
39738;SDS011;25422;48.286;8.484;2024-01-16T04:31:27;10.30;;;5.43;;
39738;SDS011;25422;48.286;8.484;2024-01-16T04:33:53;13.82;;;6.63;;
39738;SDS011;25422;48.286;8.484;2024-01-16T04:36:18;15.68;;;6.10;;
39738;SDS011;25422;48.286;8.484;2024-01-16T04:38:43;13.77;;;6.07;;
39738;SDS011;25422;48.286;8.484;2024-01-16T04:41:09;12.77;;;5.85;;
39738;SDS011;25422;48.286;8.484;2024-01-16T04:43:35;16.58;;;6.40;;
39738;SDS011;25422;48.286;8.484;2024-01-16T04:46:00;11.40;;;5.82;;
39738;SDS011;25422;48.286;8.484;2024-01-16T04:48:26;13.35;;;6.28;;
39738;SDS011;25422;48.286;8.484;2024-01-16T04:50:51;15.75;;;6.55;;
39738;SDS011;25422;48.286;8.484;2024-01-16T04:53:17;14.27;;;6.35;;
39738;SDS011;25422;48.286;8.484;2024-01-16T04:55:42;16.63;;;7.18;;
39738;SDS011;25422;48.286;8.484;2024-01-16T04:58:08;12.20;;;5.65;;
39738;SDS011;25422;48.286;8.484;2024-01-16T05:00:33;13.40;;;6.18;;
39738;SDS011;25422;48.286;8.484;2024-01-16T05:02:59;14.40;;;5.70;;
39738;SDS011;25422;48.286;8.484;2024-01-16T05:05:24;15.60;;;6.38;;
39738;SDS011;25422;48.286;8.484;2024-01-16T05:07:50;12.23;;;6.25;;
39738;SDS011;25422;48.286;8.484;2024-01-16T05:10:16;12.30;;;6.03;;
39738;SDS011;25422;48.286;8.484;2024-01-16T05:12:41;13.82;;;6.93;;
39738;SDS011;25422;48.286;8.484;2024-01-16T05:15:07;12.73;;;6.70;;
39738;SDS011;25422;48.286;8.484;2024-01-16T05:17:33;12.10;;;6.32;;
39738;SDS011;25422;48.286;8.484;2024-01-16T05:19:59;13.15;;;6.38;;
39738;SDS011;25422;48.286;8.484;2024-01-16T05:22:29;12.30;;;6.20;;
39738;SDS011;25422;48.286;8.484;2024-01-16T05:24:54;12.23;;;6.13;;
39738;SDS011;25422;48.286;8.484;2024-01-16T05:27:19;13.60;;;6.15;;
39738;SDS011;25422;48.286;8.484;2024-01-16T05:29:45;13.18;;;5.68;;
39738;SDS011;25422;48.286;8.484;2024-01-16T05:32:10;11.48;;;5.78;;
39738;SDS011;25422;48.286;8.484;2024-01-16T05:34:36;11.48;;;6.05;;
39738;SDS011;25422;48.286;8.484;2024-01-16T05:37:02;15.68;;;6.13;;
39738;SDS011;25422;48.286;8.484;2024-01-16T05:39:28;12.38;;;5.68;;
39738;SDS011;25422;48.286;8.484;2024-01-16T05:41:53;12.77;;;5.97;;
39738;SDS011;25422;48.286;8.484;2024-01-16T05:44:18;11.25;;;5.55;;
39738;SDS011;25422;48.286;8.484;2024-01-16T05:46:44;17.10;;;6.28;;
39738;SDS011;25422;48.286;8.484;2024-01-16T05:49:09;14.00;;;6.10;;
39738;SDS011;25422;48.286;8.484;2024-01-16T05:51:35;11.77;;;6.47;;
39738;SDS011;25422;48.286;8.484;2024-01-16T05:54:00;18.20;;;7.07;;
39738;SDS011;25422;48.286;8.484;2024-01-16T05:56:25;18.40;;;7.78;;
39738;SDS011;25422;48.286;8.484;2024-01-16T05:58:51;24.23;;;10.48;;
39738;SDS011;25422;48.286;8.484;2024-01-16T06:01:17;24.40;;;11.02;;
39738;SDS011;25422;48.286;8.484;2024-01-16T06:03:42;14.73;;;7.47;;
39738;SDS011;25422;48.286;8.484;2024-01-16T06:06:10;17.30;;;6.90;;
39738;SDS011;25422;48.286;8.484;2024-01-16T06:08:36;15.77;;;6.13;;
39738;SDS011;25422;48.286;8.484;2024-01-16T06:11:01;14.18;;;7.13;;
39738;SDS011;25422;48.286;8.484;2024-01-16T06:13:26;16.38;;;6.88;;
39738;SDS011;25422;48.286;8.484;2024-01-16T06:15:52;17.00;;;7.63;;
39738;SDS011;25422;48.286;8.484;2024-01-16T06:18:17;16.70;;;7.32;;
39738;SDS011;25422;48.286;8.484;2024-01-16T06:20:43;13.75;;;6.95;;
39738;SDS011;25422;48.286;8.484;2024-01-16T06:23:08;15.40;;;7.78;;
39738;SDS011;25422;48.286;8.484;2024-01-16T06:25:33;17.52;;;7.47;;
39738;SDS011;25422;48.286;8.484;2024-01-16T06:27:59;15.65;;;7.00;;
39738;SDS011;25422;48.286;8.484;2024-01-16T06:30:24;16.33;;;7.40;;
39738;SDS011;25422;48.286;8.484;2024-01-16T06:32:50;15.25;;;6.97;;
39738;SDS011;25422;48.286;8.484;2024-01-16T06:35:15;15.10;;;7.38;;
39738;SDS011;25422;48.286;8.484;2024-01-16T06:37:41;15.35;;;8.20;;
39738;SDS011;25422;48.286;8.484;2024-01-16T06:40:07;15.98;;;7.53;;
39738;SDS011;25422;48.286;8.484;2024-01-16T06:42:34;23.23;;;9.70;;
39738;SDS011;25422;48.286;8.484;2024-01-16T06:45:01;22.00;;;9.43;;
39738;SDS011;25422;48.286;8.484;2024-01-16T06:47:27;22.70;;;9.70;;
39738;SDS011;25422;48.286;8.484;2024-01-16T06:49:52;26.15;;;10.18;;
39738;SDS011;25422;48.286;8.484;2024-01-16T06:52:17;30.73;;;10.25;;
39738;SDS011;25422;48.286;8.484;2024-01-16T06:54:43;23.10;;;11.45;;
39738;SDS011;25422;48.286;8.484;2024-01-16T06:57:08;25.15;;;10.27;;
39738;SDS011;25422;48.286;8.484;2024-01-16T06:59:34;25.77;;;10.23;;
39738;SDS011;25422;48.286;8.484;2024-01-16T07:01:59;24.02;;;10.27;;
39738;SDS011;25422;48.286;8.484;2024-01-16T07:04:25;21.33;;;10.60;;
39738;SDS011;25422;48.286;8.484;2024-01-16T07:06:50;19.30;;;9.35;;
39738;SDS011;25422;48.286;8.484;2024-01-16T07:09:16;22.02;;;9.45;;
39738;SDS011;25422;48.286;8.484;2024-01-16T07:11:43;24.33;;;8.65;;
39738;SDS011;25422;48.286;8.484;2024-01-16T07:14:09;15.30;;;7.82;;
39738;SDS011;25422;48.286;8.484;2024-01-16T07:16:35;16.35;;;7.78;;
39738;SDS011;25422;48.286;8.484;2024-01-16T07:19:01;21.27;;;9.00;;
39738;SDS011;25422;48.286;8.484;2024-01-16T07:21:27;18.08;;;8.63;;
39738;SDS011;25422;48.286;8.484;2024-01-16T07:23:53;15.80;;;8.45;;
39738;SDS011;25422;48.286;8.484;2024-01-16T07:26:19;24.27;;;9.93;;
39738;SDS011;25422;48.286;8.484;2024-01-16T07:28:45;22.70;;;9.80;;
39738;SDS011;25422;48.286;8.484;2024-01-16T07:31:11;20.77;;;9.43;;
39738;SDS011;25422;48.286;8.484;2024-01-16T07:33:36;19.50;;;9.45;;
39738;SDS011;25422;48.286;8.484;2024-01-16T07:36:02;25.75;;;11.20;;
39738;SDS011;25422;48.286;8.484;2024-01-16T07:38:27;18.98;;;9.75;;
39738;SDS011;25422;48.286;8.484;2024-01-16T07:40:53;25.33;;;11.45;;
39738;SDS011;25422;48.286;8.484;2024-01-16T07:43:19;24.33;;;11.80;;
39738;SDS011;25422;48.286;8.484;2024-01-16T07:45:44;26.38;;;11.93;;
39738;SDS011;25422;48.286;8.484;2024-01-16T07:48:09;26.80;;;11.48;;
39738;SDS011;25422;48.286;8.484;2024-01-16T07:50:36;24.23;;;10.48;;
39738;SDS011;25422;48.286;8.484;2024-01-16T07:53:01;16.30;;;9.50;;
39738;SDS011;25422;48.286;8.484;2024-01-16T07:55:27;17.00;;;8.65;;
39738;SDS011;25422;48.286;8.484;2024-01-16T07:57:53;16.92;;;8.77;;
39738;SDS011;25422;48.286;8.484;2024-01-16T08:00:19;18.00;;;8.80;;
39738;SDS011;25422;48.286;8.484;2024-01-16T08:02:44;19.88;;;9.10;;
39738;SDS011;25422;48.286;8.484;2024-01-16T08:05:10;19.65;;;9.65;;
39738;SDS011;25422;48.286;8.484;2024-01-16T08:07:35;17.88;;;7.97;;
39738;SDS011;25422;48.286;8.484;2024-01-16T08:10:01;16.75;;;8.60;;
39738;SDS011;25422;48.286;8.484;2024-01-16T08:12:26;14.73;;;8.13;;
39738;SDS011;25422;48.286;8.484;2024-01-16T08:14:52;16.95;;;9.00;;
39738;SDS011;25422;48.286;8.484;2024-01-16T08:17:17;17.92;;;8.93;;
39738;SDS011;25422;48.286;8.484;2024-01-16T08:19:43;14.68;;;8.10;;
39738;SDS011;25422;48.286;8.484;2024-01-16T08:22:08;14.00;;;7.70;;
39738;SDS011;25422;48.286;8.484;2024-01-16T08:24:33;13.73;;;7.50;;
39738;SDS011;25422;48.286;8.484;2024-01-16T08:26:59;16.73;;;8.27;;
39738;SDS011;25422;48.286;8.484;2024-01-16T08:29:24;12.27;;;7.28;;
39738;SDS011;25422;48.286;8.484;2024-01-16T08:31:50;14.10;;;7.30;;
39738;SDS011;25422;48.286;8.484;2024-01-16T08:34:19;11.57;;;6.68;;
39738;SDS011;25422;48.286;8.484;2024-01-16T08:36:44;15.30;;;7.43;;
39738;SDS011;25422;48.286;8.484;2024-01-16T08:39:10;14.43;;;7.60;;
39738;SDS011;25422;48.286;8.484;2024-01-16T08:41:36;15.68;;;8.75;;
39738;SDS011;25422;48.286;8.484;2024-01-16T08:44:01;19.95;;;8.73;;
39738;SDS011;25422;48.286;8.484;2024-01-16T08:46:27;13.85;;;8.07;;
39738;SDS011;25422;48.286;8.484;2024-01-16T08:48:53;14.50;;;9.02;;
39738;SDS011;25422;48.286;8.484;2024-01-16T08:51:19;17.58;;;10.27;;
39738;SDS011;25422;48.286;8.484;2024-01-16T08:53:45;19.70;;;11.80;;
39738;SDS011;25422;48.286;8.484;2024-01-16T08:56:11;22.30;;;11.60;;
39738;SDS011;25422;48.286;8.484;2024-01-16T08:58:37;19.75;;;11.57;;
39738;SDS011;25422;48.286;8.484;2024-01-16T09:01:03;20.40;;;10.07;;
39738;SDS011;25422;48.286;8.484;2024-01-16T09:03:33;18.13;;;9.82;;
39738;SDS011;25422;48.286;8.484;2024-01-16T09:05:59;16.70;;;9.52;;
39738;SDS011;25422;48.286;8.484;2024-01-16T09:08:28;16.05;;;9.60;;
39738;SDS011;25422;48.286;8.484;2024-01-16T09:10:54;18.67;;;10.63;;
39738;SDS011;25422;48.286;8.484;2024-01-16T09:13:20;19.42;;;11.25;;
39738;SDS011;25422;48.286;8.484;2024-01-16T09:15:49;17.08;;;10.57;;
39738;SDS011;25422;48.286;8.484;2024-01-16T09:18:15;23.10;;;12.70;;
39738;SDS011;25422;48.286;8.484;2024-01-16T09:20:41;22.60;;;11.55;;
39738;SDS011;25422;48.286;8.484;2024-01-16T09:23:07;24.83;;;12.30;;
39738;SDS011;25422;48.286;8.484;2024-01-16T09:25:34;23.00;;;12.70;;
39738;SDS011;25422;48.286;8.484;2024-01-16T09:28:00;21.13;;;11.75;;
39738;SDS011;25422;48.286;8.484;2024-01-16T09:30:25;20.55;;;11.57;;
39738;SDS011;25422;48.286;8.484;2024-01-16T09:32:51;22.08;;;13.95;;
39738;SDS011;25422;48.286;8.484;2024-01-16T09:35:16;23.58;;;15.50;;
39738;SDS011;25422;48.286;8.484;2024-01-16T09:37:42;19.58;;;10.90;;
39738;SDS011;25422;48.286;8.484;2024-01-16T09:40:08;16.35;;;9.57;;
39738;SDS011;25422;48.286;8.484;2024-01-16T09:42:34;15.30;;;9.05;;
39738;SDS011;25422;48.286;8.484;2024-01-16T09:45:02;14.15;;;8.50;;
39738;SDS011;25422;48.286;8.484;2024-01-16T09:47:29;13.25;;;8.32;;
39738;SDS011;25422;48.286;8.484;2024-01-16T09:49:56;12.27;;;8.15;;
39738;SDS011;25422;48.286;8.484;2024-01-16T09:52:22;10.40;;;6.50;;
39738;SDS011;25422;48.286;8.484;2024-01-16T09:54:48;9.38;;;6.82;;
39738;SDS011;25422;48.286;8.484;2024-01-16T09:57:13;13.00;;;7.45;;
39738;SDS011;25422;48.286;8.484;2024-01-16T09:59:41;12.65;;;9.00;;
39738;SDS011;25422;48.286;8.484;2024-01-16T10:02:08;12.50;;;8.05;;
39738;SDS011;25422;48.286;8.484;2024-01-16T10:04:35;14.23;;;9.52;;
39738;SDS011;25422;48.286;8.484;2024-01-16T10:07:01;15.05;;;9.82;;
39738;SDS011;25422;48.286;8.484;2024-01-16T10:09:27;15.35;;;9.98;;
39738;SDS011;25422;48.286;8.484;2024-01-16T10:11:53;12.27;;;8.10;;
39738;SDS011;25422;48.286;8.484;2024-01-16T10:14:19;11.13;;;7.38;;
39738;SDS011;25422;48.286;8.484;2024-01-16T10:16:54;11.10;;;6.05;;
39738;SDS011;25422;48.286;8.484;2024-01-16T10:19:22;8.48;;;5.43;;
39738;SDS011;25422;48.286;8.484;2024-01-16T10:21:47;6.07;;;4.40;;
39738;SDS011;25422;48.286;8.484;2024-01-16T10:24:13;7.03;;;4.47;;
39738;SDS011;25422;48.286;8.484;2024-01-16T10:26:38;7.00;;;4.63;;
39738;SDS011;25422;48.286;8.484;2024-01-16T10:29:04;4.15;;;3.50;;
39738;SDS011;25422;48.286;8.484;2024-01-16T10:31:33;6.65;;;3.50;;
39738;SDS011;25422;48.286;8.484;2024-01-16T10:33:58;5.55;;;3.30;;
39738;SDS011;25422;48.286;8.484;2024-01-16T10:36:24;5.32;;;3.63;;
39738;SDS011;25422;48.286;8.484;2024-01-16T10:38:50;6.38;;;3.45;;
39738;SDS011;25422;48.286;8.484;2024-01-16T10:41:23;5.88;;;3.63;;
39738;SDS011;25422;48.286;8.484;2024-01-16T10:44:11;7.90;;;3.90;;
39738;SDS011;25422;48.286;8.484;2024-01-16T10:46:36;6.80;;;3.85;;
39738;SDS011;25422;48.286;8.484;2024-01-16T10:49:04;6.65;;;4.13;;
39738;SDS011;25422;48.286;8.484;2024-01-16T10:51:30;7.30;;;3.90;;
39738;SDS011;25422;48.286;8.484;2024-01-16T10:54:00;6.95;;;4.50;;
39738;SDS011;25422;48.286;8.484;2024-01-16T10:56:28;6.10;;;4.63;;
39738;SDS011;25422;48.286;8.484;2024-01-16T10:59:06;7.85;;;4.53;;
39738;SDS011;25422;48.286;8.484;2024-01-16T11:01:43;6.05;;;4.38;;
39738;SDS011;25422;48.286;8.484;2024-01-16T11:04:10;6.93;;;4.63;;
39738;SDS011;25422;48.286;8.484;2024-01-16T11:06:37;6.65;;;4.13;;
39738;SDS011;25422;48.286;8.484;2024-01-16T11:09:05;8.98;;;4.63;;
39738;SDS011;25422;48.286;8.484;2024-01-16T11:11:32;9.15;;;4.60;;
39738;SDS011;25422;48.286;8.484;2024-01-16T11:13:59;6.22;;;4.28;;
39738;SDS011;25422;48.286;8.484;2024-01-16T11:16:28;6.72;;;4.10;;
39738;SDS011;25422;48.286;8.484;2024-01-16T11:18:57;8.63;;;4.70;;
39738;SDS011;25422;48.286;8.484;2024-01-16T11:21:23;7.68;;;4.38;;
39738;SDS011;25422;48.286;8.484;2024-01-16T11:23:50;7.10;;;4.88;;
39738;SDS011;25422;48.286;8.484;2024-01-16T11:26:26;9.02;;;4.50;;
39738;SDS011;25422;48.286;8.484;2024-01-16T11:28:53;8.45;;;4.60;;
39738;SDS011;25422;48.286;8.484;2024-01-16T11:31:27;7.85;;;4.55;;
39738;SDS011;25422;48.286;8.484;2024-01-16T11:33:57;7.22;;;4.72;;
39738;SDS011;25422;48.286;8.484;2024-01-16T11:39:09;9.10;;;5.07;;
39738;SDS011;25422;48.286;8.484;2024-01-16T11:41:51;7.20;;;5.22;;
39738;SDS011;25422;48.286;8.484;2024-01-16T11:47:20;9.07;;;5.13;;
39738;SDS011;25422;48.286;8.484;2024-01-16T11:49:46;8.60;;;5.13;;
39738;SDS011;25422;48.286;8.484;2024-01-16T11:52:13;8.80;;;5.38;;
39738;SDS011;25422;48.286;8.484;2024-01-16T11:54:39;8.02;;;5.30;;
39738;SDS011;25422;48.286;8.484;2024-01-16T12:02:48;7.32;;;5.20;;
39738;SDS011;25422;48.286;8.484;2024-01-16T12:05:16;9.27;;;6.07;;
39738;SDS011;25422;48.286;8.484;2024-01-16T12:07:51;7.60;;;5.25;;
39738;SDS011;25422;48.286;8.484;2024-01-16T12:10:20;7.15;;;4.65;;
39738;SDS011;25422;48.286;8.484;2024-01-16T12:12:47;5.72;;;4.32;;
39738;SDS011;25422;48.286;8.484;2024-01-16T12:15:15;6.40;;;4.20;;
39738;SDS011;25422;48.286;8.484;2024-01-16T12:17:57;7.22;;;4.22;;
39738;SDS011;25422;48.286;8.484;2024-01-16T12:20:28;8.45;;;4.68;;
39738;SDS011;25422;48.286;8.484;2024-01-16T12:22:58;7.57;;;4.80;;
39738;SDS011;25422;48.286;8.484;2024-01-16T12:25:28;8.00;;;4.90;;
39738;SDS011;25422;48.286;8.484;2024-01-16T12:30:23;7.18;;;4.82;;
39738;SDS011;25422;48.286;8.484;2024-01-16T12:32:49;6.90;;;5.15;;
39738;SDS011;25422;48.286;8.484;2024-01-16T12:35:19;7.05;;;4.68;;
39738;SDS011;25422;48.286;8.484;2024-01-16T12:37:57;8.15;;;5.15;;
39738;SDS011;25422;48.286;8.484;2024-01-16T12:40:27;6.53;;;4.50;;
39738;SDS011;25422;48.286;8.484;2024-01-16T12:42:53;6.68;;;4.53;;
39738;SDS011;25422;48.286;8.484;2024-01-16T12:45:19;6.18;;;4.32;;
39738;SDS011;25422;48.286;8.484;2024-01-16T12:47:49;7.03;;;5.00;;
39738;SDS011;25422;48.286;8.484;2024-01-16T12:50:22;8.23;;;5.10;;
39738;SDS011;25422;48.286;8.484;2024-01-16T12:52:49;9.63;;;5.63;;
39738;SDS011;25422;48.286;8.484;2024-01-16T12:55:16;6.88;;;4.38;;
39738;SDS011;25422;48.286;8.484;2024-01-16T12:57:42;7.47;;;5.28;;
39738;SDS011;25422;48.286;8.484;2024-01-16T13:00:22;6.70;;;5.28;;
39738;SDS011;25422;48.286;8.484;2024-01-16T13:02:51;7.45;;;5.55;;
39738;SDS011;25422;48.286;8.484;2024-01-16T13:05:17;8.48;;;5.57;;
39738;SDS011;25422;48.286;8.484;2024-01-16T13:07:43;9.55;;;6.32;;
39738;SDS011;25422;48.286;8.484;2024-01-16T13:10:10;8.05;;;5.88;;
39738;SDS011;25422;48.286;8.484;2024-01-16T13:12:43;23.10;;;12.82;;
39738;SDS011;25422;48.286;8.484;2024-01-16T13:15:09;7.50;;;5.55;;
39738;SDS011;25422;48.286;8.484;2024-01-16T13:17:36;9.25;;;6.25;;
39738;SDS011;25422;48.286;8.484;2024-01-16T13:20:01;10.60;;;6.65;;
39738;SDS011;25422;48.286;8.484;2024-01-16T13:22:28;9.98;;;6.15;;
39738;SDS011;25422;48.286;8.484;2024-01-16T13:24:54;10.32;;;6.07;;
39738;SDS011;25422;48.286;8.484;2024-01-16T13:27:20;15.05;;;7.28;;
39738;SDS011;25422;48.286;8.484;2024-01-16T13:29:46;14.38;;;7.30;;
39738;SDS011;25422;48.286;8.484;2024-01-16T13:32:11;12.52;;;6.95;;
39738;SDS011;25422;48.286;8.484;2024-01-16T13:34:38;12.63;;;7.88;;
39738;SDS011;25422;48.286;8.484;2024-01-16T13:37:03;11.80;;;7.40;;
39738;SDS011;25422;48.286;8.484;2024-01-16T13:39:29;14.18;;;7.78;;
39738;SDS011;25422;48.286;8.484;2024-01-16T13:42:01;16.45;;;8.63;;
39738;SDS011;25422;48.286;8.484;2024-01-16T13:44:30;15.18;;;8.25;;
39738;SDS011;25422;48.286;8.484;2024-01-16T13:46:56;14.10;;;7.47;;
39738;SDS011;25422;48.286;8.484;2024-01-16T13:49:21;13.43;;;7.65;;
39738;SDS011;25422;48.286;8.484;2024-01-16T13:51:47;14.52;;;7.32;;
39738;SDS011;25422;48.286;8.484;2024-01-16T13:54:12;13.27;;;6.90;;
39738;SDS011;25422;48.286;8.484;2024-01-16T13:56:38;13.90;;;7.65;;
39738;SDS011;25422;48.286;8.484;2024-01-16T13:59:04;12.85;;;6.78;;
39738;SDS011;25422;48.286;8.484;2024-01-16T14:01:29;17.10;;;7.70;;
39738;SDS011;25422;48.286;8.484;2024-01-16T14:03:55;14.35;;;6.70;;
39738;SDS011;25422;48.286;8.484;2024-01-16T14:06:20;13.20;;;6.95;;
39738;SDS011;25422;48.286;8.484;2024-01-16T14:08:46;14.43;;;7.53;;
39738;SDS011;25422;48.286;8.484;2024-01-16T14:11:11;13.30;;;7.45;;
39738;SDS011;25422;48.286;8.484;2024-01-16T14:13:36;12.98;;;6.97;;
39738;SDS011;25422;48.286;8.484;2024-01-16T14:16:02;15.07;;;7.88;;
39738;SDS011;25422;48.286;8.484;2024-01-16T14:18:28;16.10;;;8.25;;
39738;SDS011;25422;48.286;8.484;2024-01-16T14:20:53;13.35;;;7.45;;
39738;SDS011;25422;48.286;8.484;2024-01-16T14:23:19;15.73;;;8.18;;
39738;SDS011;25422;48.286;8.484;2024-01-16T14:25:45;13.75;;;7.25;;
39738;SDS011;25422;48.286;8.484;2024-01-16T14:28:10;15.40;;;8.32;;
39738;SDS011;25422;48.286;8.484;2024-01-16T14:30:37;14.77;;;7.80;;
39738;SDS011;25422;48.286;8.484;2024-01-16T14:33:03;16.00;;;8.45;;
39738;SDS011;25422;48.286;8.484;2024-01-16T14:35:31;13.43;;;7.05;;
39738;SDS011;25422;48.286;8.484;2024-01-16T14:37:58;15.43;;;8.35;;
39738;SDS011;25422;48.286;8.484;2024-01-16T14:40:23;15.25;;;8.95;;
39738;SDS011;25422;48.286;8.484;2024-01-16T14:42:53;18.08;;;8.80;;
39738;SDS011;25422;48.286;8.484;2024-01-16T14:45:20;18.52;;;9.35;;
39738;SDS011;25422;48.286;8.484;2024-01-16T14:47:46;17.02;;;8.73;;